createdAt,value
2023-05-14T00:00:50.598Z,3.10
2023-05-14T00:03:17.310Z,3.00
2023-05-14T00:05:43.803Z,3.13
2023-05-14T00:08:10.288Z,3.05
2023-05-14T00:10:36.808Z,3.40
2023-05-14T00:13:03.360Z,3.15
2023-05-14T00:15:30.501Z,3.00
2023-05-14T00:17:57.761Z,3.33
2023-05-14T00:20:24.437Z,3.20
2023-05-14T00:22:51.195Z,2.83
2023-05-14T00:25:17.610Z,3.00
2023-05-14T00:27:44.069Z,2.90
2023-05-14T00:30:11.097Z,3.30
2023-05-14T00:32:40.907Z,3.63
2023-05-14T00:35:07.811Z,3.10
2023-05-14T00:37:34.435Z,2.90
2023-05-14T00:40:01.043Z,3.35
2023-05-14T00:42:27.883Z,3.42
2023-05-14T00:44:54.629Z,2.90
2023-05-14T00:47:21.236Z,2.97
2023-05-14T00:49:48.525Z,2.75
2023-05-14T00:52:15.513Z,2.90
2023-05-14T00:54:42.136Z,3.58
2023-05-14T00:57:08.707Z,3.08
2023-05-14T00:59:36.127Z,3.13
2023-05-14T01:02:02.699Z,3.20
2023-05-14T01:04:29.447Z,3.30
2023-05-14T01:07:05.392Z,3.22
2023-05-14T01:09:54.921Z,3.42
2023-05-14T01:12:26.194Z,3.60
2023-05-14T01:14:56.998Z,4.10
2023-05-14T01:17:26.959Z,3.30
2023-05-14T01:19:54.035Z,3.75
2023-05-14T01:22:20.767Z,3.70
2023-05-14T01:24:47.379Z,3.40
2023-05-14T01:27:14.040Z,3.35
2023-05-14T01:29:42.215Z,3.30
2023-05-14T01:32:10.725Z,3.50
2023-05-14T01:34:37.861Z,3.13
2023-05-14T01:37:05.708Z,3.38
2023-05-14T01:39:32.902Z,3.40
2023-05-14T01:42:00.110Z,3.40
2023-05-14T01:44:26.646Z,3.25
2023-05-14T01:46:56.960Z,3.15
2023-05-14T01:49:23.535Z,3.40
2023-05-14T01:51:50.093Z,4.00
2023-05-14T01:54:16.553Z,3.72
2023-05-14T01:56:42.934Z,3.20
2023-05-14T01:59:09.428Z,3.20
2023-05-14T02:01:36.074Z,3.55
2023-05-14T02:04:02.581Z,3.10
2023-05-14T02:06:29.106Z,3.63
2023-05-14T02:08:55.656Z,3.40
2023-05-14T02:11:22.188Z,3.40
2023-05-14T02:13:48.706Z,3.58
2023-05-14T02:16:15.331Z,3.40
2023-05-14T02:18:41.847Z,3.47
2023-05-14T02:21:08.525Z,3.80
2023-05-14T02:23:41.633Z,3.28
2023-05-14T02:26:09.776Z,3.30
2023-05-14T02:28:36.419Z,3.22
2023-05-14T02:31:02.961Z,3.40
2023-05-14T02:33:29.520Z,2.97
2023-05-14T02:35:56.100Z,3.50
2023-05-14T02:38:22.903Z,3.15
2023-05-14T02:40:49.366Z,3.25
2023-05-14T02:43:15.867Z,3.28
2023-05-14T02:45:42.368Z,3.50
2023-05-14T02:48:08.884Z,3.63
2023-05-14T02:50:35.351Z,3.00
2023-05-14T02:53:01.911Z,3.67
2023-05-14T02:55:28.837Z,3.28
2023-05-14T02:57:55.407Z,3.40
2023-05-14T03:00:22.224Z,3.50
2023-05-14T03:02:49.249Z,3.25
2023-05-14T03:05:16.362Z,3.20
2023-05-14T03:07:42.785Z,3.28
2023-05-14T03:10:09.524Z,3.50
2023-05-14T03:12:36.050Z,3.30
2023-05-14T03:15:02.515Z,3.28
2023-05-14T03:17:29.029Z,3.10
2023-05-14T03:19:55.908Z,2.92
2023-05-14T03:22:22.426Z,3.33
2023-05-14T03:24:48.994Z,2.95
2023-05-14T03:27:15.621Z,3.53
2023-05-14T03:29:42.078Z,3.42
2023-05-14T03:32:08.719Z,2.95
2023-05-14T03:34:35.243Z,3.30
2023-05-14T03:37:01.692Z,3.10
2023-05-14T03:39:28.140Z,3.17
2023-05-14T03:41:57.033Z,3.45
2023-05-14T03:44:23.528Z,3.25
2023-05-14T03:46:50.000Z,3.60
2023-05-14T03:49:16.509Z,3.50
2023-05-14T03:51:43.031Z,3.75
2023-05-14T03:54:10.414Z,3.17
2023-05-14T03:56:36.970Z,3.88
2023-05-14T03:59:03.404Z,3.40
2023-05-14T04:01:30.144Z,3.88
2023-05-14T04:03:56.984Z,3.70
2023-05-14T04:06:23.613Z,3.75
2023-05-14T04:08:50.117Z,3.35
2023-05-14T04:11:16.981Z,3.70
2023-05-14T04:13:43.529Z,3.60
2023-05-14T04:16:09.976Z,3.70
2023-05-14T04:18:36.633Z,3.58
2023-05-14T04:21:03.197Z,3.53
2023-05-14T04:23:29.724Z,4.00
2023-05-14T04:25:57.086Z,3.50
2023-05-14T04:28:24.651Z,3.80
2023-05-14T04:30:51.406Z,3.30
2023-05-14T04:33:18.115Z,3.53
2023-05-14T04:35:46.188Z,3.05
2023-05-14T04:38:14.530Z,3.50
2023-05-14T04:40:43.679Z,3.72
2023-05-14T04:43:11.115Z,3.67
2023-05-14T04:45:37.698Z,3.50
2023-05-14T04:48:04.910Z,3.00
2023-05-14T04:50:31.534Z,3.50
2023-05-14T04:52:57.962Z,4.07
2023-05-14T04:55:24.658Z,3.60
2023-05-14T04:57:51.266Z,3.70
2023-05-14T05:00:17.878Z,3.75
2023-05-14T05:02:44.738Z,3.90
2023-05-14T05:05:11.521Z,4.05
2023-05-14T05:07:37.987Z,3.53
2023-05-14T05:10:04.816Z,3.15
2023-05-14T05:12:31.685Z,3.72
2023-05-14T05:14:58.414Z,3.58
2023-05-14T05:17:25.368Z,4.00
2023-05-14T05:19:52.640Z,3.53
2023-05-14T05:22:20.300Z,3.58
2023-05-14T05:24:49.129Z,3.20
2023-05-14T05:27:16.646Z,3.55
2023-05-14T05:29:43.986Z,3.33
2023-05-14T05:32:10.587Z,4.03
2023-05-14T05:34:37.262Z,3.95
2023-05-14T05:37:04.289Z,3.58
2023-05-14T05:39:35.295Z,3.50
2023-05-14T05:42:02.823Z,3.47
2023-05-14T05:44:29.436Z,3.70
2023-05-14T05:46:57.411Z,3.95
2023-05-14T05:49:24.251Z,3.58
2023-05-14T05:51:50.771Z,3.92
2023-05-14T05:54:17.303Z,3.72
2023-05-14T05:56:43.755Z,3.28
2023-05-14T05:59:10.293Z,3.63
2023-05-14T06:01:37.120Z,3.88
2023-05-14T06:04:05.668Z,4.03
2023-05-14T06:06:33.297Z,3.40
2023-05-14T06:09:02.238Z,3.88
2023-05-14T06:11:28.871Z,3.88
2023-05-14T06:13:55.357Z,3.45
2023-05-14T06:16:21.949Z,3.78
2023-05-14T06:18:48.773Z,3.45
2023-05-14T06:21:15.555Z,3.50
2023-05-14T06:23:46.687Z,3.10
2023-05-14T06:26:13.213Z,3.30
2023-05-14T06:28:41.066Z,3.58
2023-05-14T06:31:07.504Z,3.33
2023-05-14T06:33:34.022Z,3.80
2023-05-14T06:36:01.066Z,3.40
2023-05-14T06:38:27.783Z,3.63
2023-05-14T06:40:54.901Z,3.42
2023-05-14T06:43:21.449Z,3.55
2023-05-14T06:45:51.670Z,3.10
2023-05-14T06:48:21.661Z,3.00
2023-05-14T06:50:51.039Z,3.20
2023-05-14T06:53:17.801Z,3.75
2023-05-14T06:55:47.389Z,3.25
2023-05-14T06:58:19.822Z,3.08
2023-05-14T07:00:46.509Z,3.28
2023-05-14T07:03:13.070Z,3.47
2023-05-14T07:05:42.759Z,3.50
2023-05-14T07:08:09.315Z,3.50
2023-05-14T07:10:35.834Z,3.15
2023-05-14T07:13:03.507Z,3.40
2023-05-14T07:15:31.316Z,3.45
2023-05-14T07:17:58.215Z,3.53
2023-05-14T07:20:25.611Z,2.95
2023-05-14T07:22:52.847Z,3.20
2023-05-14T07:25:22.498Z,3.10
2023-05-14T07:27:51.036Z,3.38
2023-05-14T07:30:17.901Z,3.13
2023-05-14T07:32:46.643Z,3.40
2023-05-14T07:37:40.233Z,2.90
2023-05-14T07:40:07.149Z,3.03
2023-05-14T07:42:37.165Z,3.38
2023-05-14T07:45:04.965Z,3.33
2023-05-14T07:47:31.893Z,3.05
2023-05-14T07:49:58.752Z,3.15
2023-05-14T07:52:25.264Z,3.50
2023-05-14T07:54:52.159Z,3.17
2023-05-14T07:57:19.216Z,3.13
2023-05-14T07:59:46.009Z,2.72
2023-05-14T08:02:13.056Z,3.17
2023-05-14T08:04:39.915Z,3.45
2023-05-14T08:07:08.415Z,3.35
2023-05-14T08:12:01.457Z,2.95
2023-05-14T08:14:28.618Z,3.13
2023-05-14T08:16:55.113Z,2.60
2023-05-14T08:19:21.900Z,3.08
2023-05-14T08:21:48.715Z,3.22
2023-05-14T08:24:15.888Z,3.13
2023-05-14T08:26:42.414Z,3.40
2023-05-14T08:29:10.549Z,3.30
2023-05-14T08:31:38.212Z,3.05
2023-05-14T08:34:05.864Z,2.88
2023-05-14T08:36:33.194Z,2.60
2023-05-14T08:38:59.687Z,3.03
2023-05-14T08:41:26.750Z,2.70
2023-05-14T08:44:13.232Z,2.55
2023-05-14T08:46:40.055Z,2.70
2023-05-14T08:49:23.554Z,2.72
2023-05-14T08:51:50.553Z,2.90
2023-05-14T08:54:17.922Z,2.83
2023-05-14T08:56:46.379Z,2.80
2023-05-14T09:01:40.029Z,2.90
2023-05-14T09:04:08.584Z,2.90
2023-05-14T09:06:37.941Z,2.40
2023-05-14T09:09:04.537Z,2.72
2023-05-14T09:11:31.253Z,2.83
2023-05-14T09:13:57.705Z,2.80
2023-05-14T09:16:26.067Z,2.97
2023-05-14T09:18:52.947Z,2.80
2023-05-14T09:21:20.038Z,2.97
2023-05-14T09:23:47.908Z,2.75
2023-05-14T09:26:17.041Z,2.80
2023-05-14T09:28:43.682Z,2.95
2023-05-14T09:31:10.275Z,2.95
2023-05-14T09:33:37.125Z,2.75
2023-05-14T09:36:04.985Z,3.00
2023-05-14T09:38:31.853Z,2.78
2023-05-14T09:41:07.043Z,2.90
2023-05-14T09:43:33.587Z,3.03
2023-05-14T09:46:00.045Z,2.75
2023-05-14T09:48:26.822Z,3.10
2023-05-14T09:50:53.324Z,2.90
2023-05-14T09:53:19.940Z,3.17
2023-05-14T09:55:46.532Z,2.83
2023-05-14T09:58:16.351Z,2.65
2023-05-14T10:00:46.855Z,3.10
2023-05-14T10:03:15.234Z,3.30
2023-05-14T10:05:42.726Z,2.75
2023-05-14T10:08:12.348Z,2.55
2023-05-14T10:10:39.170Z,2.65
2023-05-14T10:13:11.910Z,2.33
2023-05-14T10:15:38.427Z,2.63
2023-05-14T10:18:09.011Z,2.55
2023-05-14T10:20:36.817Z,2.53
2023-05-14T10:23:03.336Z,2.40
2023-05-14T10:25:30.052Z,2.80
2023-05-14T10:27:56.804Z,2.40
2023-05-14T10:30:24.645Z,2.90
2023-05-14T10:33:06.052Z,2.80
2023-05-14T10:35:50.975Z,2.80
2023-05-14T10:38:23.871Z,2.85
2023-05-14T10:40:54.219Z,2.50
2023-05-14T10:43:24.070Z,2.70
2023-05-14T10:45:51.571Z,2.50
2023-05-14T10:48:20.364Z,2.97
2023-05-14T10:50:48.281Z,2.53
2023-05-14T10:53:15.169Z,2.60
2023-05-14T10:55:43.002Z,2.87
2023-05-14T10:58:10.887Z,2.35
2023-05-14T11:03:05.927Z,2.60
2023-05-14T11:05:33.444Z,2.78
2023-05-14T11:08:01.554Z,2.80
2023-05-14T11:10:30.230Z,2.60
2023-05-14T11:12:57.633Z,2.50
2023-05-14T11:15:25.000Z,2.40
2023-05-14T11:17:52.687Z,2.80
2023-05-14T11:20:20.115Z,2.42
2023-05-14T11:22:47.295Z,2.20
2023-05-14T11:25:25.785Z,2.42
2023-05-14T11:27:59.050Z,2.55
2023-05-14T11:30:25.772Z,2.63
2023-05-14T11:32:52.716Z,2.13
2023-05-14T11:35:21.103Z,2.55
2023-05-14T11:37:54.980Z,2.58
2023-05-14T11:40:22.677Z,2.72
2023-05-14T11:42:51.479Z,2.40
2023-05-14T11:45:26.353Z,2.70
2023-05-14T11:47:53.765Z,2.30
2023-05-14T11:50:21.390Z,2.80
2023-05-14T11:52:50.835Z,2.53
2023-05-14T11:55:17.719Z,2.50
2023-05-14T11:57:44.327Z,2.40
2023-05-14T12:00:13.580Z,2.45
2023-05-14T12:02:40.150Z,2.35
2023-05-14T12:05:07.494Z,2.50
2023-05-14T12:07:34.042Z,2.42
2023-05-14T12:10:06.308Z,2.63
2023-05-14T12:12:41.210Z,2.47
2023-05-14T12:15:12.070Z,2.67
2023-05-14T12:17:40.171Z,2.45
2023-05-14T12:20:13.659Z,2.58
2023-05-14T12:22:41.702Z,3.42
2023-05-14T12:25:13.502Z,3.20
2023-05-14T12:27:40.181Z,2.88
2023-05-14T12:30:20.791Z,3.20
2023-05-14T12:32:54.008Z,2.90
2023-05-14T12:35:21.390Z,2.55
2023-05-14T12:37:48.018Z,2.70
2023-05-14T12:40:14.778Z,2.90
2023-05-14T12:42:41.425Z,2.60
2023-05-14T12:45:08.711Z,2.70
2023-05-14T12:47:36.387Z,2.53
2023-05-14T12:50:03.076Z,2.70
2023-05-14T12:54:59.325Z,2.70
2023-05-14T12:57:27.780Z,2.90
2023-05-14T12:59:55.084Z,3.05
2023-05-14T13:02:22.336Z,2.60
2023-05-14T13:04:51.761Z,2.60
2023-05-14T13:07:18.575Z,2.78
2023-05-14T13:09:45.483Z,2.67
2023-05-14T13:17:06.015Z,2.95
2023-05-14T13:19:35.698Z,2.67
2023-05-14T13:22:02.387Z,2.70
2023-05-14T13:24:29.009Z,2.60
2023-05-14T13:26:55.628Z,2.72
2023-05-14T13:29:22.333Z,2.92
2023-05-14T13:31:48.979Z,2.63
2023-05-14T13:34:15.667Z,2.70
2023-05-14T13:36:43.605Z,2.95
2023-05-14T13:39:13.656Z,2.53
2023-05-14T13:41:41.329Z,2.45
2023-05-14T13:44:08.114Z,2.53
2023-05-14T13:46:35.624Z,2.60
2023-05-14T13:49:03.602Z,2.50
2023-05-14T13:51:32.135Z,2.10
2023-05-14T13:54:01.960Z,2.50
2023-05-14T13:56:28.641Z,2.13
2023-05-14T13:58:56.195Z,2.40
2023-05-14T14:01:23.485Z,2.50
2023-05-14T14:03:51.894Z,2.30
2023-05-14T14:06:21.612Z,2.58
2023-05-14T14:08:48.595Z,2.33
2023-05-14T14:11:15.087Z,2.40
2023-05-14T14:13:43.724Z,2.33
2023-05-14T14:16:11.769Z,2.53
2023-05-14T14:18:38.510Z,2.60
2023-05-14T14:21:05.041Z,2.30
2023-05-14T14:23:31.862Z,2.10
2023-05-14T14:25:58.566Z,2.30
2023-05-14T14:28:25.112Z,2.40
2023-05-14T14:30:51.918Z,2.50
2023-05-14T14:33:21.641Z,2.30
2023-05-14T14:35:48.190Z,2.45
2023-05-14T14:38:14.782Z,2.25
2023-05-14T14:40:41.505Z,2.28
2023-05-14T14:43:14.305Z,2.47
2023-05-14T14:45:41.227Z,2.55
2023-05-14T14:48:23.448Z,2.40
2023-05-14T14:50:50.139Z,2.40
2023-05-14T14:53:17.216Z,2.53
2023-05-14T14:55:44.308Z,2.60
2023-05-14T14:58:11.224Z,2.20
2023-05-14T15:00:38.169Z,2.67
2023-05-14T15:03:04.904Z,2.63
2023-05-14T15:05:31.721Z,3.03
2023-05-14T15:08:01.639Z,2.65
2023-05-14T15:10:28.935Z,3.35
2023-05-14T15:12:59.206Z,2.30
2023-05-14T15:15:26.518Z,2.78
2023-05-14T15:17:53.228Z,2.40
2023-05-14T15:20:20.915Z,2.58
2023-05-14T15:22:49.113Z,2.40
2023-05-14T15:27:48.824Z,2.20
2023-05-14T15:30:16.282Z,2.03
2023-05-14T15:32:43.560Z,2.17
2023-05-14T15:35:13.924Z,2.40
2023-05-14T15:37:41.728Z,2.35
2023-05-14T15:40:14.103Z,2.40
2023-05-14T15:42:44.938Z,2.30
2023-05-14T15:45:15.041Z,2.50
2023-05-14T15:47:42.804Z,2.47
2023-05-14T15:50:09.563Z,2.42
2023-05-14T15:52:39.257Z,2.70
2023-05-14T15:55:10.372Z,2.50
2023-05-14T15:57:37.487Z,2.47
2023-05-14T16:00:11.300Z,2.88
2023-05-14T16:02:38.444Z,2.70
2023-05-14T16:05:08.800Z,2.92
2023-05-14T16:07:36.662Z,2.75
2023-05-14T16:10:04.075Z,3.05
2023-05-14T16:12:33.325Z,2.60
2023-05-14T16:15:00.393Z,2.70
2023-05-14T16:17:28.188Z,2.50
2023-05-14T16:19:56.829Z,2.58
2023-05-14T16:22:23.563Z,2.70
2023-05-14T16:24:50.266Z,2.60
2023-05-14T16:27:18.923Z,2.83
2023-05-14T16:29:45.591Z,2.70
2023-05-14T16:32:12.354Z,2.30
2023-05-14T16:34:42.083Z,2.70
2023-05-14T16:37:13.499Z,2.92
2023-05-14T16:39:40.307Z,2.40
2023-05-14T16:42:07.063Z,2.55
2023-05-14T16:44:33.788Z,2.65
2023-05-14T16:47:06.521Z,2.72
2023-05-14T16:49:33.336Z,2.55
2023-05-14T16:52:00.024Z,2.60
2023-05-14T16:54:26.770Z,2.85
2023-05-14T16:56:53.626Z,2.60
2023-05-14T16:59:20.604Z,2.90
2023-05-14T17:01:48.702Z,2.55
2023-05-14T17:04:15.592Z,3.08
2023-05-14T17:06:48.856Z,5.22
2023-05-14T17:09:17.120Z,3.38
2023-05-14T17:11:45.012Z,2.95
2023-05-14T17:14:12.385Z,3.10
2023-05-14T17:16:41.156Z,3.00
2023-05-14T17:19:08.678Z,3.33
2023-05-14T17:21:36.168Z,3.30
2023-05-14T17:24:02.914Z,3.03
2023-05-14T17:26:30.051Z,3.00
2023-05-14T17:28:57.122Z,2.78
2023-05-14T17:31:24.408Z,3.00
2023-05-14T17:33:52.147Z,2.92
2023-05-14T17:36:19.437Z,3.40
2023-05-14T17:38:46.190Z,3.22
2023-05-14T17:41:15.688Z,3.58
2023-05-14T17:43:42.573Z,4.07
2023-05-14T17:46:09.568Z,3.22
2023-05-14T17:48:36.920Z,3.20
2023-05-14T17:51:04.796Z,3.70
2023-05-14T17:53:31.553Z,2.85
2023-05-14T17:55:58.313Z,3.55
2023-05-14T17:58:27.242Z,3.15
2023-05-14T18:03:21.396Z,3.33
2023-05-14T18:05:48.021Z,3.70
2023-05-14T18:08:14.976Z,3.30
2023-05-14T18:10:41.644Z,3.63
2023-05-14T18:13:08.050Z,3.42
2023-05-14T18:15:35.742Z,3.60
2023-05-14T18:18:02.229Z,3.70
2023-05-14T18:20:28.664Z,3.80
2023-05-14T18:22:55.128Z,3.65
2023-05-14T18:25:21.839Z,3.83
2023-05-14T18:27:48.672Z,3.53
2023-05-14T18:30:16.190Z,3.50
2023-05-14T18:32:44.580Z,3.50
2023-05-14T18:35:12.339Z,3.42
2023-05-14T18:37:41.211Z,3.45
2023-05-14T18:40:13.371Z,3.40
2023-05-14T18:42:40.377Z,3.67
2023-05-14T18:45:12.581Z,3.63
2023-05-14T18:47:40.067Z,3.70
2023-05-14T18:50:07.430Z,3.58
2023-05-14T18:52:34.032Z,3.58
2023-05-14T18:55:00.495Z,3.30
2023-05-14T18:57:29.241Z,3.78
2023-05-14T18:59:55.917Z,3.78
2023-05-14T19:02:22.480Z,4.10
2023-05-14T19:04:52.975Z,3.88
2023-05-14T19:07:20.155Z,3.83
2023-05-14T19:09:46.638Z,3.97
2023-05-14T19:12:13.535Z,4.05
2023-05-14T19:14:40.007Z,3.67
2023-05-14T19:17:06.842Z,3.90
2023-05-14T19:19:33.342Z,3.70
2023-05-14T19:22:00.458Z,3.92
2023-05-14T19:24:30.849Z,3.88
2023-05-14T19:26:57.346Z,4.15
2023-05-14T19:29:26.594Z,3.83
2023-05-14T19:34:19.807Z,3.95
2023-05-14T19:36:52.705Z,3.95
2023-05-14T19:39:19.387Z,3.70
2023-05-14T19:41:48.768Z,4.15
2023-05-14T19:44:15.469Z,4.10
2023-05-14T19:46:42.491Z,4.00
2023-05-14T19:49:09.114Z,3.90
2023-05-14T19:51:39.586Z,3.70
2023-05-14T19:54:08.711Z,3.80
2023-05-14T19:56:35.707Z,4.43
2023-05-14T19:59:02.252Z,4.05
2023-05-14T20:01:31.711Z,4.00
2023-05-14T20:04:01.053Z,4.03
2023-05-14T20:09:00.564Z,3.95
2023-05-14T20:11:27.235Z,3.58
2023-05-14T20:13:53.913Z,4.00
2023-05-14T20:16:24.681Z,3.80
2023-05-14T20:18:52.964Z,3.90
2023-05-14T20:21:19.476Z,4.05
2023-05-14T20:23:45.912Z,3.88
2023-05-14T20:26:12.595Z,3.97
2023-05-14T20:28:39.092Z,4.20
2023-05-14T20:31:05.722Z,4.53
2023-05-14T20:33:32.301Z,4.63
2023-05-14T20:35:58.834Z,4.53
2023-05-14T20:38:29.174Z,4.32
2023-05-14T20:40:55.668Z,4.40
2023-05-14T20:43:22.258Z,4.43
2023-05-14T20:45:49.651Z,4.40
2023-05-14T20:48:17.593Z,4.20
2023-05-14T20:50:44.341Z,4.40
2023-05-14T20:53:10.796Z,4.32
2023-05-14T20:55:37.315Z,4.20
2023-05-14T20:58:03.780Z,4.00
2023-05-14T21:00:30.234Z,4.57
2023-05-14T21:02:57.129Z,4.82
2023-05-14T21:05:23.888Z,4.47
2023-05-14T21:07:50.616Z,4.82
2023-05-14T21:10:17.154Z,4.80
2023-05-14T21:12:44.787Z,4.45
2023-05-14T21:15:11.633Z,4.57
2023-05-14T21:17:38.193Z,4.60
2023-05-14T21:20:04.885Z,4.20
2023-05-14T21:22:31.314Z,5.03
2023-05-14T21:24:57.781Z,4.47
2023-05-14T21:27:24.601Z,4.35
2023-05-14T21:29:51.190Z,4.88
2023-05-14T21:32:18.034Z,5.10
2023-05-14T21:34:44.908Z,5.07
2023-05-14T21:37:11.324Z,4.40
2023-05-14T21:39:37.829Z,5.05
2023-05-14T21:42:04.467Z,4.82
2023-05-14T21:44:30.926Z,5.10
2023-05-14T21:46:57.382Z,5.35
2023-05-14T21:49:24.100Z,5.07
2023-05-14T21:51:53.262Z,4.80
2023-05-14T21:54:19.920Z,5.72
2023-05-14T21:56:47.378Z,4.75
2023-05-14T21:59:13.850Z,5.75
2023-05-14T22:02:00.749Z,5.15
2023-05-14T22:04:26.786Z,5.57
2023-05-14T22:06:53.247Z,5.95
2023-05-14T22:09:19.704Z,5.30
2023-05-14T22:11:46.324Z,5.30
2023-05-14T22:14:12.756Z,5.20
2023-05-14T22:16:39.332Z,4.68
2023-05-14T22:19:06.728Z,4.65
2023-05-14T22:21:33.538Z,5.15
2023-05-14T22:23:59.992Z,4.93
2023-05-14T22:26:26.416Z,4.60
2023-05-14T22:28:53.106Z,4.47
2023-05-14T22:31:19.619Z,4.85
2023-05-14T22:33:47.915Z,4.32
2023-05-14T22:36:14.451Z,4.85
2023-05-14T22:38:41.326Z,4.25
2023-05-14T22:41:07.821Z,4.20
2023-05-14T22:43:36.044Z,5.25
2023-05-14T22:46:02.507Z,4.38
2023-05-14T22:48:29.021Z,4.95
2023-05-14T22:50:55.498Z,4.53
2023-05-14T22:53:22.276Z,4.68
2023-05-14T22:55:49.195Z,5.10
2023-05-14T22:58:15.626Z,4.80
2023-05-14T23:00:42.129Z,4.68
2023-05-14T23:03:08.698Z,5.13
2023-05-14T23:05:35.178Z,4.90
2023-05-14T23:08:01.624Z,4.72
2023-05-14T23:10:28.113Z,4.85
2023-05-14T23:12:54.760Z,4.72
2023-05-14T23:15:21.451Z,4.97
2023-05-14T23:17:50.113Z,5.05
2023-05-14T23:20:16.855Z,4.82
2023-05-14T23:22:43.229Z,5.10
2023-05-14T23:25:09.745Z,5.43
2023-05-14T23:27:36.720Z,5.47
2023-05-14T23:30:04.308Z,5.05
2023-05-14T23:32:30.975Z,5.07
2023-05-14T23:34:57.771Z,4.53
2023-05-14T23:37:24.524Z,4.72
2023-05-14T23:39:51.744Z,4.70
2023-05-14T23:42:18.477Z,4.82
2023-05-14T23:44:45.160Z,5.32
2023-05-14T23:47:12.456Z,5.25
2023-05-14T23:49:40.861Z,4.95
2023-05-14T23:52:07.730Z,5.05
2023-05-14T23:54:34.385Z,5.90
2023-05-14T23:57:00.958Z,5.18
2023-05-14T23:59:27.804Z,5.82
